• Join FlightAware (Why Join?)
  • Login
  • US Flag 
10:40PM EDT


 

Airport Tracker/Info


-or-


 

Live Flight TrackerFlight Track Log ✈ N38GT ✈ 28-Dec-2013 ✈ KAPA - KTRM

Flight Track Log - Related Links

Times and Time Zones

All times are in EST time to prevent confusion due to time zone crossing. See the N38GT flight status page for this flight to view local times or setup timezone preferences in your user account.

Time Position Orientation Groundspeed Altitude Reporting Facility
EST Latitude Longitude Course Direction KTS MPH feet Rate Location/Type
02:27PM 39.5876 -104.8512 North 188 216 7,600  Level FlightAware ADS-B (KEIK)
02:27PM 39.6133 -104.8511 360° North 240 276 8,100 1,800 Climbing FlightAware ADS-B (KEIK)
02:28PM 39.6400 -104.8510 360° North 245 282 9,200 3,780 Climbing FlightAware ADS-B (KEIK)
02:28PM 39.6631 -104.8506 North 250 288 11,400 3,900 Climbing FlightAware ADS-B (KBJC)
02:28PM 39.6883 -104.8530 356° North 252 290 11,900 3,180 Climbing FlightAware ADS-B (KEIK)
02:29PM 39.7050 -104.8702 322° Northwest 257 296 13,100 3,360 Climbing FlightAware ADS-B (KEIK)
02:29PM 39.7121 -104.9030 286° West 264 304 14,200 3,180 Climbing FlightAware ADS-B (KBJC)
02:29PM 39.7068 -104.9345 258° West 271 312 15,300 3,180 Climbing FlightAware ADS-B (KBJC)
02:30PM 39.6952 -104.9874 254° West 275 316 17,400 3,060 Climbing FlightAware ADS-B (KBJC)
02:31PM 39.6834 -105.0403 254° West 276 318 18,900 2,700 Climbing FlightAware ADS-B (KBJC)
02:31PM 39.6747 -105.0797 254° West 280 322 20,100 2,400 Climbing FlightAware ADS-B (KBJC)
02:32PM 39.6601 -105.1451 254° West 285 328 21,400 2,700 Climbing FlightAware ADS-B (KBJC)
02:32PM 39.6487 -105.1962 254° West 288 331 22,900 1,380 Climbing FlightAware ADS-B (KEIK)
02:33PM 39.6481 -105.1988 254° West 326 375 23,000 60 Climbing FlightAware ADS-B (KBJC)
02:33PM 39.6199 -105.3243 254° West 353 406 23,000  Level FlightAware ADS-B (KBJC)
02:34PM 39.6054 -105.3887 254° West 340 391 23,000  Level FlightAware ADS-B (KBJC)
02:34PM 39.5880 -105.4650 254° West 348 400 23,000 840 Level FlightAware ADS-B (KEIK)
02:35PM 39.5722 -105.5348 254° West 340 391 24,000 1,800 Climbing FlightAware ADS-B (KBJC)
02:36PM 39.5490 -105.6344 253° West 326 375 25,700 2,040 Climbing FlightAware ADS-B (KEIK)
02:37PM 39.5273 -105.7111 250° West 321 369 27,200 2,040 Climbing FlightAware ADS-B (KEIK)
02:37PM 39.5071 -105.7845 250° West 314 361 28,500 1,860 Climbing FlightAware ADS-B (KEIK)
02:38PM 39.4860 -105.8608 250° West 311 358 29,900 1,860 Climbing FlightAware ADS-B (KEIK)
02:39PM 39.4678 -105.9261 250° West 310 357 31,000 1,920 Climbing FlightAware ADS-B (KEIK)
02:39PM 39.4473 -105.9994 250° West 295 339 32,500 2,100 Climbing FlightAware ADS-B (KEIK)
02:40PM 39.4301 -106.0605 250° West 285 328 33,900 1,620 Climbing FlightAware ADS-B (KEIK)
02:41PM 39.4106 -106.1302 250° West 297 342 34,700 1,440 Climbing FlightAware ADS-B (KEIK)
02:41PM 39.3924 -106.1949 250° West 290 334 35,900 1,680 Climbing FlightAware ADS-B (KEIK)
02:42PM 39.3756 -106.2542 250° West 285 328 37,100 1,800 Climbing FlightAware ADS-B (KEIK)
02:43PM 39.3558 -106.3240 250° West 278 320 38,400 1,740 Climbing FlightAware ADS-B (KEIK)
02:43PM 39.3396 -106.3811 250° West 281 323 39,400 1,260 Climbing FlightAware ADS-B (KEIK)
02:44PM 39.3202 -106.4495 250° West 288 331 40,100 720 Climbing FlightAware ADS-B (KEIK)
02:45PM 39.3056 -106.5006 250° West 295 339 40,300 720 Climbing FlightAware ADS-B (KMTJ)
02:45PM 39.2911 -106.5513 250° West 296 341 40,900 960 Climbing FlightAware ADS-B (KEIK)
02:46PM 39.2760 -106.6040 250° West 296 341 41,300 660 Climbing FlightAware ADS-B (KMTJ)
02:46PM 39.2607 -106.6572 250° West 303 349 41,600 660 Climbing FlightAware ADS-B (KEIK)
02:47PM 39.2484 -106.6992 249° West 303 349 42,000 960 Climbing FlightAware ADS-B (KMTJ)
02:47PM 39.2241 -106.7558 241° Southwest 297 342 42,600 960 Climbing FlightAware ADS-B (KEIK)
02:48PM 39.2006 -106.8020 237° Southwest 299 344 43,000 360 Climbing FlightAware ADS-B (KMTJ)
02:48PM 39.1765 -106.8492 237° Southwest 309 356 43,000  Level FlightAware ADS-B (KMTJ)
02:49PM 39.1491 -106.9024 236° Southwest 318 366 43,000  Level FlightAware ADS-B (KMTJ)
02:49PM 39.1160 -106.9665 236° Southwest 329 379 43,000  Level FlightAware ADS-B (KMTJ)
02:50PM 39.0829 -107.0305 236° Southwest 338 389 43,000  Level FlightAware ADS-B (KMTJ)
02:51PM 39.0441 -107.1055 236° Southwest 342 394 43,000  Level FlightAware ADS-B (KMTJ)
02:52PM 39.0047 -107.1815 236° Southwest 346 398 43,000  Level FlightAware ADS-B (KMTJ)
02:52PM 38.9751 -107.2383 236° Southwest 351 404 43,000  Level FlightAware ADS-B (KMTJ)
02:53PM 38.9361 -107.3132 236° Southwest 353 406 43,000  Level FlightAware ADS-B (KMTJ)
02:53PM 38.9004 -107.3815 236° Southwest 356 410 43,000  Level FlightAware ADS-B (KMTJ)
02:54PM 38.8681 -107.4432 236° Southwest 357 411 43,000  Level FlightAware ADS-B (KMTJ)
02:55PM 38.8242 -107.5269 236° Southwest 358 412 43,000  Level FlightAware ADS-B (KMTJ)
02:55PM 38.7903 -107.5913 236° Southwest 360 414 43,000  Level FlightAware ADS-B (KMTJ)
02:56PM 38.7513 -107.6654 236° Southwest 360 414 43,000  Level FlightAware ADS-B (KMTJ)
02:57PM 38.7133 -107.7373 236° Southwest 362 417 43,000  Level FlightAware ADS-B (KMTJ)
02:58PM 38.6722 -107.8150 236° Southwest 364 419 43,000  Level FlightAware ADS-B (KMTJ)
02:58PM 38.6328 -107.8891 236° Southwest 365 420 43,000  Level FlightAware ADS-B (KMTJ)
02:59PM 38.6012 -107.9486 236° Southwest 366 421 43,000  Level FlightAware ADS-B (KMTJ)
03:00PM 38.5591 -108.0275 236° Southwest 366 421 43,000  Level FlightAware ADS-B (KMTJ)
03:00PM 38.5304 -108.0812 236° Southwest 366 421 43,000  Level FlightAware ADS-B (KMTJ)
03:01PM 38.5037 -108.1312 236° Southwest 366 421 43,000  Level FlightAware ADS-B (KMTJ)
03:01PM 38.4615 -108.2099 236° Southwest 364 419 43,000  Level FlightAware ADS-B (KMTJ)
03:02PM 38.4242 -108.2796 236° Southwest 366 421 43,000  Level FlightAware ADS-B (KMTJ)
03:02PM 38.3968 -108.3305 236° Southwest 366 421 43,000  Level FlightAware ADS-B (KMTJ)
03:03PM 38.3671 -108.3856 236° Southwest 366 421 43,000  Level FlightAware ADS-B (KMTJ)
03:03PM 38.3338 -108.4473 235° Southwest 367 422 43,000  Level FlightAware ADS-B (KMTJ)
03:04PM 38.3009 -108.5082 235° Southwest 369 425 43,000  Level FlightAware ADS-B (KMTJ)
03:05PM 38.2697 -108.5656 235° Southwest 369 425 43,000  Level FlightAware ADS-B (KMTJ)
03:05PM 38.2330 -108.6333 235° Southwest 368 423 43,000  Level FlightAware ADS-B (KMTJ)
03:06PM 38.1931 -108.7066 235° Southwest 367 422 43,000  Level FlightAware ADS-B (KMTJ)
03:07PM 38.1544 -108.7776 235° Southwest 367 422 43,000  Level FlightAware ADS-B (KMTJ)
03:07PM 38.1249 -108.8315 235° Southwest 366 421 43,000  Level FlightAware ADS-B (KMTJ)
03:08PM 38.0972 -108.8822 235° Southwest 366 421 43,000  Level FlightAware ADS-B (KMTJ)
03:08PM 38.0583 -108.9532 235° Southwest 366 421 43,000  Level FlightAware ADS-B (KMTJ)
03:09PM 38.0301 -109.0044 235° Southwest 366 421 43,000  Level FlightAware ADS-B (KMTJ)
03:09PM 37.9998 -109.0595 235° Southwest 367 422 43,000  Level FlightAware ADS-B (KMTJ)
03:10PM 37.9629 -109.1264 235° Southwest 367 422 43,000  Level FlightAware ADS-B (KMTJ)
03:11PM 37.9240 -109.1968 235° Southwest 367 422 43,000  Level FlightAware ADS-B (KMTJ)
03:11PM 37.8847 -109.2680 235° Southwest 366 421 43,000  Level FlightAware ADS-B (KMTJ)
03:12PM 37.8448 -109.3400 235° Southwest 367 422 43,000  Level FlightAware ADS-B (KMTJ)
03:13PM 37.8082 -109.4057 235° Southwest 367 422 43,000  Level FlightAware ADS-B (KMTJ)
03:13PM 37.7695 -109.4752 235° Southwest 368 423 43,000  Level FlightAware ADS-B (KMTJ)
03:14PM 37.7289 -109.5480 235° Southwest 368 423 43,000  Level FlightAware ADS-B (KMTJ)
03:15PM 37.6848 -109.6267 235° Southwest 370 426 43,000  Level FlightAware ADS-B (KMTJ)
03:15PM 37.6496 -109.6896 235° Southwest 371 427 43,000  Level FlightAware ADS-B (KMTJ)
03:16PM 37.6095 -109.7610 235° Southwest 372 428 43,000  Level FlightAware ADS-B (KMTJ)
03:17PM 37.5781 -109.8167 235° Southwest 374 430 43,000  Level FlightAware ADS-B (KMTJ)
03:17PM 37.5386 -109.8868 235° Southwest 374 430 43,000  Level FlightAware ADS-B (KMTJ)
03:18PM 37.5084 -109.9402 235° Southwest 375 432 43,000  Level FlightAware ADS-B (KMTJ)
03:18PM 37.4781 -109.9938 234° Southwest 375 432 43,000  Level FlightAware ADS-B (KMTJ)
03:19PM 37.4518 -110.0403 235° Southwest 375 432 43,000  Level FlightAware ADS-B (KMTJ)
03:20PM 37.3952 -110.1397 234° Southwest 375 432 43,000  Level FlightAware ADS-B (KMTJ)
03:20PM 37.3615 -110.1989 234° Southwest 377 434 43,000  Level FlightAware ADS-B (KMTJ)
03:21PM 37.3058 -110.2965 234° Southwest 378 435 43,000  Level FlightAware ADS-B (KMTJ)
03:21PM 37.2794 -110.3427 234° Southwest 378 435 43,000  Level FlightAware ADS-B (KMTJ)
03:27PM 36.9733 -110.8733 234° Southwest 381 438 43,000  Level FlightAware ADS-B (KMTJ)
03:27PM 36.9228 -110.9564 234° Southwest 379 436 43,000  Level Los Angeles Center
03:33PM 36.5920 -111.5230 234° Southwest 380 437 43,000  Level FlightAware ADS-B (KVGT)
03:34PM 36.5276 -111.6314 234° Southwest 380 437 43,000  Level FlightAware ADS-B (KVGT)
03:34PM 36.4805 -111.7105 234° Southwest 381 438 43,000  Level FlightAware ADS-B (KVGT)
03:35PM 36.4474 -111.7660 233° Southwest 381 438 43,000  Level FlightAware ADS-B (KVGT)
03:36PM 36.3984 -111.8480 233° Southwest 382 440 43,000  Level FlightAware ADS-B (KVGT)
03:36PM 36.3639 -111.9054 233° Southwest 383 441 43,000  Level FlightAware ADS-B (KVGT)
03:37PM 36.3296 -111.9629 233° Southwest 385 443 43,000  Level FlightAware ADS-B (KVGT)
03:38PM 36.2699 -112.0620 233° Southwest 385 443 43,000  Level FlightAware ADS-B (KVGT)
03:39PM 36.1948 -112.1865 233° Southwest 383 441 43,000  Level FlightAware ADS-B (KVGT)
03:40PM 36.1173 -112.3146 233° Southwest 383 441 43,000  Level FlightAware ADS-B (KVGT)
03:41PM 36.0621 -112.4055 233° Southwest 382 440 43,000  Level FlightAware ADS-B (KVGT)
03:42PM 35.9766 -112.5458 233° Southwest 383 441 43,000  Level FlightAware ADS-B (KVGT)
03:43PM 35.9451 -112.5972 233° Southwest 379 436 43,000  Level FlightAware ADS-B (KVGT)
03:44PM 35.8930 -112.6823 233° Southwest 379 436 43,000  Level FlightAware ADS-B (KVGT)
03:44PM 35.8420 -112.7653 233° Southwest 380 437 43,000  Level FlightAware ADS-B (KVGT)
03:45PM 35.8138 -112.8114 233° Southwest 379 436 43,000  Level FlightAware ADS-B (KVGT)
03:45PM 35.7682 -112.8853 233° Southwest 384 442 43,000  Level FlightAware ADS-B (KPRC)
03:46PM 35.7278 -112.9509 233° Southwest 381 438 43,000  Level FlightAware ADS-B (KVGT)
03:46PM 35.7049 -112.9879 233° Southwest 382 440 43,000  Level FlightAware ADS-B (KVGT)
03:47PM 35.6649 -113.0524 233° Southwest 383 441 43,000  Level FlightAware ADS-B (KVGT)
03:48PM 35.6297 -113.1092 233° Southwest 384 442 43,000  Level FlightAware ADS-B (KVGT)
03:48PM 35.5935 -113.1674 233° Southwest 384 442 43,000  Level FlightAware ADS-B (KVGT)
03:49PM 35.5584 -113.2237 233° Southwest 384 442 43,000  Level FlightAware ADS-B (KVGT)
03:49PM 35.5230 -113.2806 233° Southwest 384 442 43,000  Level FlightAware ADS-B (KVGT)
03:50PM 35.4881 -113.3365 233° Southwest 384 442 43,000  Level FlightAware ADS-B (KVGT)
03:50PM 35.4521 -113.3941 233° Southwest 384 442 43,000  Level FlightAware ADS-B (KVGT)
03:51PM 35.3823 -113.5055 232° Southwest 385 443 43,000  Level FlightAware ADS-B (KVGT)
03:52PM 35.3200 -113.6045 232° Southwest 383 441 43,000  Level FlightAware ADS-B (KVGT)
03:53PM 35.2825 -113.6641 232° Southwest 383 441 43,000  Level FlightAware ADS-B (KVGT)
03:54PM 35.2328 -113.7426 232° Southwest 384 442 43,000  Level FlightAware ADS-B (KVGT)
03:54PM 35.1821 -113.8227 232° Southwest 382 440 43,000 -480 Level FlightAware ADS-B (KVGT)
03:56PM 35.1119 -113.9335 232° Southwest 369 425 42,100 -1,380 Descending FlightAware ADS-B (KVGT)
03:56PM 35.0720 -113.9964 232° Southwest 375 432 40,700 -2,280 Descending FlightAware ADS-B (KVGT)
03:57PM 35.0291 -114.0635 232° Southwest 376 433 39,200 -2,220 Descending FlightAware ADS-B (KVGT)
03:57PM 34.9958 -114.1155 232° Southwest 380 437 38,100 -2,340 Descending FlightAware ADS-B (KVGT)
03:58PM 34.9594 -114.1727 232° Southwest 376 433 36,700 -2,280 Descending FlightAware ADS-B (KVGT)
03:59PM 34.9115 -114.2478 232° Southwest 349 402 35,100 -2,100 Descending FlightAware ADS-B (KVGT)
04:00PM 34.8481 -114.3462 232° Southwest 345 397 32,900 -2,100 Descending FlightAware ADS-B (KVGT)
04:01PM 34.7949 -114.4288 232° Southwest 347 399 31,000 -1,740 Descending FlightAware ADS-B (KVGT)
04:01PM 34.7465 -114.5034 232° Southwest 339 390 30,000 -720 Descending FlightAware ADS-B (KVGT)
04:02PM 34.7089 -114.5602 231° Southwest 341 392 30,000  Level FlightAware ADS-B (KVGT)
04:03PM 34.6758 -114.6101 231° Southwest 362 417 30,000  Level FlightAware ADS-B (KVGT)
04:03PM 34.6239 -114.6886 231° Southwest 374 430 30,000  Level FlightAware ADS-B (KVGT)
04:04PM 34.5709 -114.7684 231° Southwest 364 419 30,000 -180 Level FlightAware ADS-B (KVGT)
04:05PM 34.5387 -114.8170 231° Southwest 364 419 29,800 -1,380 Descending FlightAware ADS-B (KVGT)
04:06PM 34.4855 -114.8969 231° Southwest 361 415 28,200 -1,920 Descending FlightAware ADS-B (KVGT)
04:06PM 34.4489 -114.9518 231° Southwest 359 413 27,100 -1,920 Descending FlightAware ADS-B (KVGT)
04:07PM 34.4166 -115.0001 231° Southwest 361 415 26,100 -1,860 Descending FlightAware ADS-B (KVGT)
04:08PM 34.3596 -115.0849 231° Southwest 358 412 24,500 -1,800 Descending FlightAware ADS-B (KVGT)
04:08PM 34.3251 -115.1366 231° Southwest 357 411 23,500 -1,800 Descending FlightAware ADS-B (KVGT)
04:09PM 34.2637 -115.2278 231° Southwest 338 389 21,700 -1,680 Descending FlightAware ADS-B (KVGT)
04:10PM 34.2403 -115.2611 231° Southwest 349 402 21,000 -1,560 Descending Los Angeles Center
04:11PM 34.1839 -115.3428 230° Southwest 328 377 19,300 -1,620 Descending Los Angeles Center
04:12PM 34.1308 -115.4225 231° Southwest 313 360 17,700 -1,680 Descending Los Angeles Center
04:13PM 34.0692 -115.5156 231° Southwest 299 344 15,900 -1,560 Descending Los Angeles Center
04:14PM 34.0178 -115.5914 231° Southwest 295 339 14,500 -1,440 Descending Los Angeles Center
04:15PM 33.9664 -115.6672 231° Southwest 293 337 13,000 -1,440 Descending Los Angeles Center
04:16PM 33.9167 -115.7433 232° Southwest 292 336 11,500 -1,440 Descending Los Angeles Center
04:17PM 33.9086 -115.8358 264° West 284 327 10,100 -1,440 Descending Los Angeles Center
04:18PM 33.8778 -115.9125 244° Southwest 281 323 8,600 -1,500 Descending Los Angeles Center
04:20PM 33.8721 -116.0779 220° Southwest  Level FlightAware Approximate
04:27PM 33.6267 -116.1597 189° South  Level Estimated
04:28PM 33.6267 -116.1597 189° South  Level Estimated
04:29PM 33.6267 -116.1597 189° South  Level Estimated
04:30PM 33.6267 -116.1597 189° South  Level Estimated
04:31PM 33.6267 -116.1597 189° South  Level Estimated
04:32PM 33.6267 -116.1597 189° South  Level Estimated
04:33PM 33.6267 -116.1597 189° South  Level Estimated
04:34PM 33.6267 -116.1597 189° South  Level Estimated
04:35PM 33.6267 -116.1597 189° South  Level Estimated
04:36PM 33.6267 -116.1597 189° South  Level Estimated
04:37PM 33.6267 -116.1597 189° South  Level Estimated
04:38PM 33.6267 -116.1597 189° South  Level Estimated
04:39PM 33.6267 -116.1597 189° South  Level Estimated
04:40PM 33.6267 -116.1597 189° South  Level Estimated